Terminal Aerodrome Forecast
Issued by NWS

Home | Current Version | Previous Version | Text Only | Print | Product List | Glossary On
Versions: 1 2 3 4 5 6 7 8 9 10 11 12 13 14 15 16 17 18 19 20
000
FTUS43 KJKL 280500
TAFSME
TAF
KSME 280534Z 2806/2906 31005KT P6SM OVC030
     FM280700 30004KT P6SM SCT030 OVC035
     FM280900 VRB03KT P6SM SKC
     FM281200 19005KT P6SM BKN120
     FM282100 VRB03KT P6SM SKC=

USA.gov is the U.S. government's official web portal to all federal, state and local government web resources and services.